sensor_id;sensor_type;location;lat;lon;timestamp;temperature;humidity
17571;DHT22;8903;52.220;20.978;2023-03-21T00:01:49;8.00;99.90
17571;DHT22;8903;52.220;20.978;2023-03-21T00:04:17;8.00;99.90
17571;DHT22;8903;52.220;20.978;2023-03-21T00:06:44;8.00;99.90
17571;DHT22;8903;52.220;20.978;2023-03-21T00:09:11;8.00;99.90
17571;DHT22;8903;52.220;20.978;2023-03-21T00:11:38;8.00;99.90
17571;DHT22;8903;52.220;20.978;2023-03-21T00:14:06;8.00;99.90
17571;DHT22;8903;52.220;20.978;2023-03-21T00:16:34;8.00;99.90
17571;DHT22;8903;52.220;20.978;2023-03-21T00:19:02;8.00;99.90
17571;DHT22;8903;52.220;20.978;2023-03-21T00:21:31;7.90;99.90
17571;DHT22;8903;52.220;20.978;2023-03-21T00:24:03;7.90;99.90
17571;DHT22;8903;52.220;20.978;2023-03-21T00:26:31;7.90;99.90
17571;DHT22;8903;52.220;20.978;2023-03-21T00:28:58;7.90;99.90
17571;DHT22;8903;52.220;20.978;2023-03-21T00:31:29;7.90;99.90
17571;DHT22;8903;52.220;20.978;2023-03-21T00:33:57;7.90;99.90
17571;DHT22;8903;52.220;20.978;2023-03-21T00:36:25;7.90;99.90
17571;DHT22;8903;52.220;20.978;2023-03-21T00:38:53;7.90;99.90
17571;DHT22;8903;52.220;20.978;2023-03-21T00:41:20;7.90;99.90
17571;DHT22;8903;52.220;20.978;2023-03-21T00:43:47;7.80;99.90
17571;DHT22;8903;52.220;20.978;2023-03-21T00:46:15;7.80;99.90
17571;DHT22;8903;52.220;20.978;2023-03-21T00:48:42;7.80;99.90
17571;DHT22;8903;52.220;20.978;2023-03-21T00:51:18;7.80;99.90
17571;DHT22;8903;52.220;20.978;2023-03-21T00:53:51;7.80;99.90
17571;DHT22;8903;52.220;20.978;2023-03-21T00:56:18;7.80;99.90
17571;DHT22;8903;52.220;20.978;2023-03-21T00:58:45;7.80;99.90
17571;DHT22;8903;52.220;20.978;2023-03-21T01:01:14;7.80;99.90
17571;DHT22;8903;52.220;20.978;2023-03-21T01:03:42;7.80;99.90
17571;DHT22;8903;52.220;20.978;2023-03-21T01:06:14;7.80;99.90
17571;DHT22;8903;52.220;20.978;2023-03-21T01:08:45;7.80;99.90
17571;DHT22;8903;52.220;20.978;2023-03-21T01:11:15;7.70;99.90
17571;DHT22;8903;52.220;20.978;2023-03-21T01:13:44;7.70;99.90
17571;DHT22;8903;52.220;20.978;2023-03-21T01:16:11;7.70;99.90
17571;DHT22;8903;52.220;20.978;2023-03-21T01:18:39;7.70;99.90
17571;DHT22;8903;52.220;20.978;2023-03-21T01:21:09;7.70;99.90
17571;DHT22;8903;52.220;20.978;2023-03-21T01:23:39;7.70;99.90
17571;DHT22;8903;52.220;20.978;2023-03-21T01:26:07;7.70;99.90
17571;DHT22;8903;52.220;20.978;2023-03-21T01:28:35;7.60;99.90
17571;DHT22;8903;52.220;20.978;2023-03-21T01:31:04;7.60;99.90
17571;DHT22;8903;52.220;20.978;2023-03-21T01:33:33;7.60;99.90
17571;DHT22;8903;52.220;20.978;2023-03-21T01:36:00;7.70;99.90
17571;DHT22;8903;52.220;20.978;2023-03-21T01:38:29;7.70;99.90
17571;DHT22;8903;52.220;20.978;2023-03-21T01:40:58;7.60;99.90
17571;DHT22;8903;52.220;20.978;2023-03-21T01:43:33;7.60;99.90
17571;DHT22;8903;52.220;20.978;2023-03-21T01:46:36;7.60;99.90
17571;DHT22;8903;52.220;20.978;2023-03-21T01:49:32;7.60;99.90
17571;DHT22;8903;52.220;20.978;2023-03-21T01:52:22;7.60;99.90
17571;DHT22;8903;52.220;20.978;2023-03-21T01:54:52;7.60;99.90
17571;DHT22;8903;52.220;20.978;2023-03-21T01:57:27;7.50;99.90
17571;DHT22;8903;52.220;20.978;2023-03-21T01:59:59;7.50;99.90
17571;DHT22;8903;52.220;20.978;2023-03-21T02:02:45;7.50;99.90
17571;DHT22;8903;52.220;20.978;2023-03-21T02:05:55;7.50;99.90
17571;DHT22;8903;52.220;20.978;2023-03-21T02:08:28;7.50;99.90
17571;DHT22;8903;52.220;20.978;2023-03-21T02:10:56;7.50;99.90
17571;DHT22;8903;52.220;20.978;2023-03-21T02:13:37;7.50;99.90
17571;DHT22;8903;52.220;20.978;2023-03-21T02:16:13;7.40;99.90
17571;DHT22;8903;52.220;20.978;2023-03-21T02:18:48;7.40;99.90
17571;DHT22;8903;52.220;20.978;2023-03-21T02:21:41;7.30;99.90
17571;DHT22;8903;52.220;20.978;2023-03-21T02:24:36;7.40;99.90
17571;DHT22;8903;52.220;20.978;2023-03-21T02:27:11;7.40;99.90
17571;DHT22;8903;52.220;20.978;2023-03-21T02:32:58;7.30;99.90
17571;DHT22;8903;52.220;20.978;2023-03-21T02:35:46;7.30;99.90
17571;DHT22;8903;52.220;20.978;2023-03-21T02:38:22;7.30;99.90
17571;DHT22;8903;52.220;20.978;2023-03-21T02:41:00;7.40;99.90
17571;DHT22;8903;52.220;20.978;2023-03-21T02:43:34;7.40;99.90
17571;DHT22;8903;52.220;20.978;2023-03-21T02:46:09;7.30;99.90
17571;DHT22;8903;52.220;20.978;2023-03-21T02:48:40;7.30;99.90
17571;DHT22;8903;52.220;20.978;2023-03-21T02:51:12;7.40;99.90
17571;DHT22;8903;52.220;20.978;2023-03-21T02:53:44;7.40;99.90
17571;DHT22;8903;52.220;20.978;2023-03-21T02:56:15;7.40;99.90
17571;DHT22;8903;52.220;20.978;2023-03-21T02:58:47;7.30;99.90
17571;DHT22;8903;52.220;20.978;2023-03-21T03:01:15;7.30;99.90
17571;DHT22;8903;52.220;20.978;2023-03-21T03:03:46;7.30;99.90
17571;DHT22;8903;52.220;20.978;2023-03-21T03:06:16;7.40;99.90
17571;DHT22;8903;52.220;20.978;2023-03-21T03:09:06;7.40;99.90
17571;DHT22;8903;52.220;20.978;2023-03-21T03:11:40;7.40;99.90
17571;DHT22;8903;52.220;20.978;2023-03-21T03:14:27;7.40;99.90
17571;DHT22;8903;52.220;20.978;2023-03-21T03:17:06;7.30;99.90
17571;DHT22;8903;52.220;20.978;2023-03-21T03:19:46;7.30;99.90
17571;DHT22;8903;52.220;20.978;2023-03-21T03:22:23;7.30;99.90
17571;DHT22;8903;52.220;20.978;2023-03-21T03:24:57;7.30;99.90
17571;DHT22;8903;52.220;20.978;2023-03-21T03:27:29;7.20;99.90
17571;DHT22;8903;52.220;20.978;2023-03-21T03:30:04;7.20;99.90
17571;DHT22;8903;52.220;20.978;2023-03-21T03:32:35;7.20;99.90
17571;DHT22;8903;52.220;20.978;2023-03-21T03:35:05;7.20;99.90
17571;DHT22;8903;52.220;20.978;2023-03-21T03:37:34;7.10;99.90
17571;DHT22;8903;52.220;20.978;2023-03-21T03:40:07;7.20;99.90
17571;DHT22;8903;52.220;20.978;2023-03-21T03:42:41;7.20;99.90
17571;DHT22;8903;52.220;20.978;2023-03-21T03:45:27;7.20;99.90
17571;DHT22;8903;52.220;20.978;2023-03-21T03:48:01;7.10;99.90
17571;DHT22;8903;52.220;20.978;2023-03-21T03:50:40;7.20;99.90
17571;DHT22;8903;52.220;20.978;2023-03-21T03:53:16;7.20;99.90
17571;DHT22;8903;52.220;20.978;2023-03-21T03:55:52;7.10;99.90
17571;DHT22;8903;52.220;20.978;2023-03-21T03:58:21;7.10;99.90
17571;DHT22;8903;52.220;20.978;2023-03-21T04:00:50;7.20;99.90
17571;DHT22;8903;52.220;20.978;2023-03-21T04:03:17;7.20;99.90
17571;DHT22;8903;52.220;20.978;2023-03-21T04:05:44;7.10;99.90
17571;DHT22;8903;52.220;20.978;2023-03-21T04:08:14;7.10;99.90
17571;DHT22;8903;52.220;20.978;2023-03-21T04:10:45;7.10;99.90
17571;DHT22;8903;52.220;20.978;2023-03-21T04:13:14;7.10;99.90
17571;DHT22;8903;52.220;20.978;2023-03-21T04:15:53;7.10;99.90
17571;DHT22;8903;52.220;20.978;2023-03-21T04:18:20;7.10;99.90
17571;DHT22;8903;52.220;20.978;2023-03-21T04:20:48;7.10;99.90
17571;DHT22;8903;52.220;20.978;2023-03-21T04:23:16;7.10;99.90
17571;DHT22;8903;52.220;20.978;2023-03-21T04:25:45;7.20;99.90
17571;DHT22;8903;52.220;20.978;2023-03-21T04:28:14;7.10;99.90
17571;DHT22;8903;52.220;20.978;2023-03-21T04:30:50;7.10;99.90
17571;DHT22;8903;52.220;20.978;2023-03-21T04:33:20;7.20;99.90
17571;DHT22;8903;52.220;20.978;2023-03-21T04:35:54;7.10;99.90
17571;DHT22;8903;52.220;20.978;2023-03-21T04:38:25;7.10;99.90
17571;DHT22;8903;52.220;20.978;2023-03-21T04:40:57;7.20;99.90
17571;DHT22;8903;52.220;20.978;2023-03-21T04:43:26;7.20;99.90
17571;DHT22;8903;52.220;20.978;2023-03-21T04:45:55;7.20;99.90
17571;DHT22;8903;52.220;20.978;2023-03-21T04:48:22;7.20;99.90
17571;DHT22;8903;52.220;20.978;2023-03-21T04:50:51;7.20;99.90
17571;DHT22;8903;52.220;20.978;2023-03-21T04:53:18;7.20;99.90
17571;DHT22;8903;52.220;20.978;2023-03-21T04:55:45;7.10;99.90
17571;DHT22;8903;52.220;20.978;2023-03-21T04:58:12;7.10;99.90
17571;DHT22;8903;52.220;20.978;2023-03-21T05:00:41;7.10;99.90
17571;DHT22;8903;52.220;20.978;2023-03-21T05:03:08;7.10;99.90
17571;DHT22;8903;52.220;20.978;2023-03-21T05:05:35;7.10;99.90
17571;DHT22;8903;52.220;20.978;2023-03-21T05:08:03;7.10;99.90
17571;DHT22;8903;52.220;20.978;2023-03-21T05:10:31;7.10;99.90
17571;DHT22;8903;52.220;20.978;2023-03-21T05:12:58;7.10;99.90
17571;DHT22;8903;52.220;20.978;2023-03-21T05:15:26;7.20;99.90
17571;DHT22;8903;52.220;20.978;2023-03-21T05:17:57;7.20;99.90
17571;DHT22;8903;52.220;20.978;2023-03-21T05:20:40;7.20;99.90
17571;DHT22;8903;52.220;20.978;2023-03-21T05:23:09;7.10;99.90
17571;DHT22;8903;52.220;20.978;2023-03-21T05:25:37;7.10;99.90
17571;DHT22;8903;52.220;20.978;2023-03-21T05:28:09;7.10;99.90
17571;DHT22;8903;52.220;20.978;2023-03-21T05:30:37;7.10;99.90
17571;DHT22;8903;52.220;20.978;2023-03-21T05:33:07;7.10;99.90
17571;DHT22;8903;52.220;20.978;2023-03-21T05:35:34;7.10;99.90
17571;DHT22;8903;52.220;20.978;2023-03-21T05:38:04;7.10;99.90
17571;DHT22;8903;52.220;20.978;2023-03-21T05:40:46;7.10;99.90
17571;DHT22;8903;52.220;20.978;2023-03-21T05:43:13;7.10;99.90
17571;DHT22;8903;52.220;20.978;2023-03-21T05:45:40;7.00;99.90
17571;DHT22;8903;52.220;20.978;2023-03-21T05:48:10;7.10;99.90
17571;DHT22;8903;52.220;20.978;2023-03-21T05:50:53;7.10;99.90
17571;DHT22;8903;52.220;20.978;2023-03-21T05:53:21;7.10;99.90
17571;DHT22;8903;52.220;20.978;2023-03-21T05:55:48;7.00;99.90
17571;DHT22;8903;52.220;20.978;2023-03-21T05:58:32;7.00;99.90
17571;DHT22;8903;52.220;20.978;2023-03-21T06:01:00;7.10;99.90
17571;DHT22;8903;52.220;20.978;2023-03-21T06:03:32;7.00;99.90
17571;DHT22;8903;52.220;20.978;2023-03-21T06:06:07;7.00;99.90
17571;DHT22;8903;52.220;20.978;2023-03-21T06:08:46;7.00;99.90
17571;DHT22;8903;52.220;20.978;2023-03-21T06:11:19;7.00;99.90
17571;DHT22;8903;52.220;20.978;2023-03-21T06:13:50;7.00;99.90
17571;DHT22;8903;52.220;20.978;2023-03-21T06:16:20;7.10;99.90
17571;DHT22;8903;52.220;20.978;2023-03-21T06:18:49;7.00;99.90
17571;DHT22;8903;52.220;20.978;2023-03-21T06:21:28;7.00;99.90
17571;DHT22;8903;52.220;20.978;2023-03-21T06:23:57;7.10;99.90
17571;DHT22;8903;52.220;20.978;2023-03-21T06:26:24;7.10;99.90
17571;DHT22;8903;52.220;20.978;2023-03-21T06:28:53;7.00;99.90
17571;DHT22;8903;52.220;20.978;2023-03-21T06:31:20;7.10;99.90
17571;DHT22;8903;52.220;20.978;2023-03-21T06:33:50;7.10;99.90
17571;DHT22;8903;52.220;20.978;2023-03-21T06:36:18;7.20;99.90
17571;DHT22;8903;52.220;20.978;2023-03-21T06:38:45;7.20;99.90
17571;DHT22;8903;52.220;20.978;2023-03-21T06:41:14;7.30;99.90
17571;DHT22;8903;52.220;20.978;2023-03-21T06:43:49;7.30;99.90
17571;DHT22;8903;52.220;20.978;2023-03-21T06:46:16;7.30;99.90
17571;DHT22;8903;52.220;20.978;2023-03-21T06:48:44;7.30;99.90
17571;DHT22;8903;52.220;20.978;2023-03-21T06:51:14;7.30;99.90
17571;DHT22;8903;52.220;20.978;2023-03-21T06:53:54;7.40;99.90
17571;DHT22;8903;52.220;20.978;2023-03-21T06:56:44;7.30;99.90
17571;DHT22;8903;52.220;20.978;2023-03-21T06:59:21;7.30;99.90
17571;DHT22;8903;52.220;20.978;2023-03-21T07:02:11;7.20;99.90
17571;DHT22;8903;52.220;20.978;2023-03-21T07:04:45;7.30;99.90
17571;DHT22;8903;52.220;20.978;2023-03-21T07:07:18;7.30;99.90
17571;DHT22;8903;52.220;20.978;2023-03-21T07:09:45;7.30;99.90
17571;DHT22;8903;52.220;20.978;2023-03-21T07:12:13;7.30;99.90
17571;DHT22;8903;52.220;20.978;2023-03-21T07:14:59;7.30;99.90
17571;DHT22;8903;52.220;20.978;2023-03-21T07:17:26;7.40;99.90
17571;DHT22;8903;52.220;20.978;2023-03-21T07:19:56;7.50;99.90
17571;DHT22;8903;52.220;20.978;2023-03-21T07:22:25;7.50;99.90
17571;DHT22;8903;52.220;20.978;2023-03-21T07:24:53;7.50;99.90
17571;DHT22;8903;52.220;20.978;2023-03-21T07:27:20;7.60;99.90
17571;DHT22;8903;52.220;20.978;2023-03-21T07:29:47;7.70;99.90
17571;DHT22;8903;52.220;20.978;2023-03-21T07:32:15;7.80;99.90
17571;DHT22;8903;52.220;20.978;2023-03-21T07:34:42;7.90;99.90
17571;DHT22;8903;52.220;20.978;2023-03-21T07:37:09;7.90;99.90
17571;DHT22;8903;52.220;20.978;2023-03-21T07:39:38;7.90;99.90
17571;DHT22;8903;52.220;20.978;2023-03-21T07:42:05;7.90;99.90
17571;DHT22;8903;52.220;20.978;2023-03-21T07:44:37;7.90;99.90
17571;DHT22;8903;52.220;20.978;2023-03-21T07:47:05;8.00;99.90
17571;DHT22;8903;52.220;20.978;2023-03-21T07:49:32;8.00;99.90
17571;DHT22;8903;52.220;20.978;2023-03-21T07:51:59;8.10;99.90
17571;DHT22;8903;52.220;20.978;2023-03-21T07:54:27;7.90;99.90
17571;DHT22;8903;52.220;20.978;2023-03-21T07:56:56;8.00;99.90
17571;DHT22;8903;52.220;20.978;2023-03-21T07:59:23;8.10;99.90
17571;DHT22;8903;52.220;20.978;2023-03-21T08:01:50;8.20;99.90
17571;DHT22;8903;52.220;20.978;2023-03-21T08:04:17;8.30;99.90
17571;DHT22;8903;52.220;20.978;2023-03-21T08:06:44;8.20;99.90
17571;DHT22;8903;52.220;20.978;2023-03-21T08:09:11;8.10;99.90
17571;DHT22;8903;52.220;20.978;2023-03-21T08:11:39;8.10;99.90
17571;DHT22;8903;52.220;20.978;2023-03-21T08:14:07;8.00;99.90
17571;DHT22;8903;52.220;20.978;2023-03-21T08:16:34;8.10;99.90
17571;DHT22;8903;52.220;20.978;2023-03-21T08:19:01;8.20;99.90
17571;DHT22;8903;52.220;20.978;2023-03-21T08:21:28;8.30;99.90
17571;DHT22;8903;52.220;20.978;2023-03-21T08:23:55;8.40;99.90
17571;DHT22;8903;52.220;20.978;2023-03-21T08:26:22;8.50;99.90
17571;DHT22;8903;52.220;20.978;2023-03-21T08:28:51;8.50;99.90
17571;DHT22;8903;52.220;20.978;2023-03-21T08:31:19;8.60;99.90
17571;DHT22;8903;52.220;20.978;2023-03-21T08:33:47;8.60;99.90
17571;DHT22;8903;52.220;20.978;2023-03-21T08:36:18;8.50;99.90
17571;DHT22;8903;52.220;20.978;2023-03-21T08:38:45;8.40;99.90
17571;DHT22;8903;52.220;20.978;2023-03-21T08:41:13;8.40;99.90
17571;DHT22;8903;52.220;20.978;2023-03-21T08:43:40;8.50;99.90
17571;DHT22;8903;52.220;20.978;2023-03-21T08:46:07;8.60;99.90
17571;DHT22;8903;52.220;20.978;2023-03-21T08:48:35;8.70;99.90
17571;DHT22;8903;52.220;20.978;2023-03-21T08:51:03;8.80;99.90
17571;DHT22;8903;52.220;20.978;2023-03-21T08:53:31;8.80;99.90
17571;DHT22;8903;52.220;20.978;2023-03-21T08:55:58;8.80;99.90
17571;DHT22;8903;52.220;20.978;2023-03-21T08:58:25;8.60;99.90
17571;DHT22;8903;52.220;20.978;2023-03-21T09:00:52;8.70;99.90
17571;DHT22;8903;52.220;20.978;2023-03-21T09:03:20;8.70;99.90
17571;DHT22;8903;52.220;20.978;2023-03-21T09:05:48;8.80;99.90
17571;DHT22;8903;52.220;20.978;2023-03-21T09:08:15;8.80;99.90
17571;DHT22;8903;52.220;20.978;2023-03-21T09:10:42;8.70;99.90
17571;DHT22;8903;52.220;20.978;2023-03-21T09:13:09;8.70;99.90
17571;DHT22;8903;52.220;20.978;2023-03-21T09:15:36;8.80;99.90
17571;DHT22;8903;52.220;20.978;2023-03-21T09:18:03;8.70;99.90
17571;DHT22;8903;52.220;20.978;2023-03-21T09:20:41;8.70;99.90
17571;DHT22;8903;52.220;20.978;2023-03-21T09:23:11;8.60;99.90
17571;DHT22;8903;52.220;20.978;2023-03-21T09:25:39;8.60;99.90
17571;DHT22;8903;52.220;20.978;2023-03-21T09:28:07;8.70;99.90
17571;DHT22;8903;52.220;20.978;2023-03-21T09:30:34;8.80;99.90
17571;DHT22;8903;52.220;20.978;2023-03-21T09:33:03;8.80;99.90
17571;DHT22;8903;52.220;20.978;2023-03-21T09:35:34;8.70;99.90
17571;DHT22;8903;52.220;20.978;2023-03-21T09:38:01;8.60;99.90
17571;DHT22;8903;52.220;20.978;2023-03-21T09:40:44;8.60;99.90
17571;DHT22;8903;52.220;20.978;2023-03-21T09:43:29;8.50;99.90
17571;DHT22;8903;52.220;20.978;2023-03-21T09:46:06;8.50;99.90
17571;DHT22;8903;52.220;20.978;2023-03-21T09:48:41;8.40;99.90
17571;DHT22;8903;52.220;20.978;2023-03-21T09:51:15;8.30;99.90
17571;DHT22;8903;52.220;20.978;2023-03-21T09:53:46;8.00;99.90
17571;DHT22;8903;52.220;20.978;2023-03-21T09:56:16;7.90;99.90
17571;DHT22;8903;52.220;20.978;2023-03-21T09:58:45;7.90;99.90
17571;DHT22;8903;52.220;20.978;2023-03-21T10:01:19;7.90;99.90
17571;DHT22;8903;52.220;20.978;2023-03-21T10:03:55;7.90;99.90
17571;DHT22;8903;52.220;20.978;2023-03-21T10:06:25;7.90;99.90
17571;DHT22;8903;52.220;20.978;2023-03-21T10:08:57;8.00;99.90
17571;DHT22;8903;52.220;20.978;2023-03-21T10:11:31;8.10;99.90
17571;DHT22;8903;52.220;20.978;2023-03-21T10:14:04;8.10;99.90
17571;DHT22;8903;52.220;20.978;2023-03-21T10:16:34;8.10;99.90
17571;DHT22;8903;52.220;20.978;2023-03-21T10:19:05;8.30;99.90
17571;DHT22;8903;52.220;20.978;2023-03-21T10:21:37;8.30;99.90
17571;DHT22;8903;52.220;20.978;2023-03-21T10:24:10;8.20;99.90
17571;DHT22;8903;52.220;20.978;2023-03-21T10:26:39;8.00;99.90
17571;DHT22;8903;52.220;20.978;2023-03-21T10:29:09;7.70;99.90
17571;DHT22;8903;52.220;20.978;2023-03-21T10:31:39;7.60;99.90
17571;DHT22;8903;52.220;20.978;2023-03-21T10:34:12;7.50;99.90
17571;DHT22;8903;52.220;20.978;2023-03-21T10:36:42;7.60;99.90
17571;DHT22;8903;52.220;20.978;2023-03-21T10:39:17;7.50;99.90
17571;DHT22;8903;52.220;20.978;2023-03-21T10:41:48;7.50;99.90
17571;DHT22;8903;52.220;20.978;2023-03-21T10:44:17;7.20;99.90
17571;DHT22;8903;52.220;20.978;2023-03-21T10:46:53;7.10;99.90
17571;DHT22;8903;52.220;20.978;2023-03-21T10:49:20;7.00;99.90
17571;DHT22;8903;52.220;20.978;2023-03-21T10:51:50;7.10;99.90
17571;DHT22;8903;52.220;20.978;2023-03-21T10:54:19;7.20;99.90
17571;DHT22;8903;52.220;20.978;2023-03-21T10:56:55;7.40;99.90
17571;DHT22;8903;52.220;20.978;2023-03-21T10:59:24;7.50;99.90
17571;DHT22;8903;52.220;20.978;2023-03-21T11:01:54;7.60;99.90
17571;DHT22;8903;52.220;20.978;2023-03-21T11:04:25;7.90;99.90
17571;DHT22;8903;52.220;20.978;2023-03-21T11:06:55;8.10;99.90
17571;DHT22;8903;52.220;20.978;2023-03-21T11:09:25;8.40;99.90
17571;DHT22;8903;52.220;20.978;2023-03-21T11:12:01;8.70;99.90
17571;DHT22;8903;52.220;20.978;2023-03-21T11:14:35;8.80;99.90
17571;DHT22;8903;52.220;20.978;2023-03-21T11:17:17;9.00;99.90
17571;DHT22;8903;52.220;20.978;2023-03-21T11:19:47;9.00;99.90
17571;DHT22;8903;52.220;20.978;2023-03-21T11:22:15;9.00;99.90
17571;DHT22;8903;52.220;20.978;2023-03-21T11:24:49;9.10;99.90
17571;DHT22;8903;52.220;20.978;2023-03-21T11:27:19;9.10;99.90
17571;DHT22;8903;52.220;20.978;2023-03-21T11:29:47;9.10;99.90
17571;DHT22;8903;52.220;20.978;2023-03-21T11:32:21;9.10;99.90
17571;DHT22;8903;52.220;20.978;2023-03-21T11:34:50;8.90;99.90
17571;DHT22;8903;52.220;20.978;2023-03-21T11:37:26;8.80;99.90
17571;DHT22;8903;52.220;20.978;2023-03-21T11:40:05;8.80;99.90
17571;DHT22;8903;52.220;20.978;2023-03-21T11:42:44;9.00;99.90
17571;DHT22;8903;52.220;20.978;2023-03-21T11:45:14;9.80;99.90
17571;DHT22;8903;52.220;20.978;2023-03-21T11:47:42;10.30;99.90
17571;DHT22;8903;52.220;20.978;2023-03-21T11:50:22;9.90;99.90
17571;DHT22;8903;52.220;20.978;2023-03-21T11:53:05;10.50;99.90
17571;DHT22;8903;52.220;20.978;2023-03-21T11:55:48;10.60;99.90
17571;DHT22;8903;52.220;20.978;2023-03-21T11:58:30;10.60;99.90
17571;DHT22;8903;52.220;20.978;2023-03-21T12:01:04;10.40;99.90
17571;DHT22;8903;52.220;20.978;2023-03-21T12:04:02;10.00;99.90
17571;DHT22;8903;52.220;20.978;2023-03-21T12:06:34;9.80;99.90
17571;DHT22;8903;52.220;20.978;2023-03-21T12:09:16;9.60;99.90
17571;DHT22;8903;52.220;20.978;2023-03-21T12:11:55;9.70;99.90
17571;DHT22;8903;52.220;20.978;2023-03-21T12:14:31;9.80;99.90
17571;DHT22;8903;52.220;20.978;2023-03-21T12:17:09;9.70;99.90
17571;DHT22;8903;52.220;20.978;2023-03-21T12:20:05;9.70;99.90
17571;DHT22;8903;52.220;20.978;2023-03-21T12:22:41;9.80;99.90
17571;DHT22;8903;52.220;20.978;2023-03-21T12:25:15;9.80;99.90
17571;DHT22;8903;52.220;20.978;2023-03-21T12:27:51;9.90;99.90
17571;DHT22;8903;52.220;20.978;2023-03-21T12:30:41;10.00;99.90
17571;DHT22;8903;52.220;20.978;2023-03-21T12:33:24;10.00;99.90
17571;DHT22;8903;52.220;20.978;2023-03-21T12:36:07;9.90;99.90
17571;DHT22;8903;52.220;20.978;2023-03-21T12:38:40;9.60;99.90
17571;DHT22;8903;52.220;20.978;2023-03-21T12:41:22;9.40;99.90
17571;DHT22;8903;52.220;20.978;2023-03-21T12:43:53;9.30;99.90
17571;DHT22;8903;52.220;20.978;2023-03-21T12:46:26;9.20;99.90
17571;DHT22;8903;52.220;20.978;2023-03-21T12:48:58;9.40;99.90
17571;DHT22;8903;52.220;20.978;2023-03-21T12:51:29;9.50;99.90
17571;DHT22;8903;52.220;20.978;2023-03-21T12:54:12;9.80;99.90
17571;DHT22;8903;52.220;20.978;2023-03-21T12:56:46;9.80;99.90
17571;DHT22;8903;52.220;20.978;2023-03-21T12:59:22;10.20;99.90
17571;DHT22;8903;52.220;20.978;2023-03-21T13:01:55;10.50;99.90
17571;DHT22;8903;52.220;20.978;2023-03-21T13:04:35;10.60;99.90
17571;DHT22;8903;52.220;20.978;2023-03-21T13:07:07;10.80;99.90
17571;DHT22;8903;52.220;20.978;2023-03-21T13:09:37;10.90;99.90
17571;DHT22;8903;52.220;20.978;2023-03-21T13:12:15;10.20;99.90
17571;DHT22;8903;52.220;20.978;2023-03-21T13:14:55;10.10;99.90
17571;DHT22;8903;52.220;20.978;2023-03-21T13:17:29;10.10;99.90
17571;DHT22;8903;52.220;20.978;2023-03-21T13:20:06;10.20;99.90
17571;DHT22;8903;52.220;20.978;2023-03-21T13:22:35;10.20;99.90
17571;DHT22;8903;52.220;20.978;2023-03-21T13:25:06;10.30;99.90
17571;DHT22;8903;52.220;20.978;2023-03-21T13:27:41;10.20;99.90
17571;DHT22;8903;52.220;20.978;2023-03-21T13:30:18;10.30;99.90
17571;DHT22;8903;52.220;20.978;2023-03-21T13:32:49;10.30;99.90
17571;DHT22;8903;52.220;20.978;2023-03-21T13:35:18;10.40;99.90
17571;DHT22;8903;52.220;20.978;2023-03-21T13:37:49;10.50;99.90
17571;DHT22;8903;52.220;20.978;2023-03-21T13:40:24;10.40;99.90
17571;DHT22;8903;52.220;20.978;2023-03-21T13:42:54;10.50;99.90
17571;DHT22;8903;52.220;20.978;2023-03-21T13:45:27;10.60;99.90
17571;DHT22;8903;52.220;20.978;2023-03-21T13:47:57;10.70;99.90
17571;DHT22;8903;52.220;20.978;2023-03-21T13:50:33;10.80;99.90
17571;DHT22;8903;52.220;20.978;2023-03-21T13:53:23;10.80;99.90
17571;DHT22;8903;52.220;20.978;2023-03-21T13:56:23;11.00;99.90
17571;DHT22;8903;52.220;20.978;2023-03-21T13:58:57;11.30;99.90
17571;DHT22;8903;52.220;20.978;2023-03-21T14:01:30;11.40;99.90
17571;DHT22;8903;52.220;20.978;2023-03-21T14:04:03;11.50;99.90
17571;DHT22;8903;52.220;20.978;2023-03-21T14:06:35;11.50;99.90
17571;DHT22;8903;52.220;20.978;2023-03-21T14:09:04;11.50;99.90
17571;DHT22;8903;52.220;20.978;2023-03-21T14:11:32;11.60;99.90
17571;DHT22;8903;52.220;20.978;2023-03-21T14:14:01;11.90;99.90
17571;DHT22;8903;52.220;20.978;2023-03-21T14:16:29;12.30;99.90
17571;DHT22;8903;52.220;20.978;2023-03-21T14:19:02;12.40;99.90
17571;DHT22;8903;52.220;20.978;2023-03-21T14:21:31;12.30;99.90
17571;DHT22;8903;52.220;20.978;2023-03-21T14:24:00;12.20;99.90
17571;DHT22;8903;52.220;20.978;2023-03-21T14:26:30;12.10;99.90
17571;DHT22;8903;52.220;20.978;2023-03-21T14:28:58;11.80;99.90
17571;DHT22;8903;52.220;20.978;2023-03-21T14:31:27;11.70;99.90
17571;DHT22;8903;52.220;20.978;2023-03-21T14:33:56;11.50;99.90
17571;DHT22;8903;52.220;20.978;2023-03-21T14:36:27;11.40;99.90
17571;DHT22;8903;52.220;20.978;2023-03-21T14:38:57;11.50;99.90
17571;DHT22;8903;52.220;20.978;2023-03-21T14:41:29;11.70;99.90
17571;DHT22;8903;52.220;20.978;2023-03-21T14:44:01;11.90;99.90
17571;DHT22;8903;52.220;20.978;2023-03-21T14:46:29;12.00;99.90
17571;DHT22;8903;52.220;20.978;2023-03-21T14:49:12;12.10;99.90
17571;DHT22;8903;52.220;20.978;2023-03-21T14:51:41;12.10;99.90
17571;DHT22;8903;52.220;20.978;2023-03-21T14:54:14;12.00;99.90
17571;DHT22;8903;52.220;20.978;2023-03-21T14:56:46;11.80;99.90
17571;DHT22;8903;52.220;20.978;2023-03-21T14:59:15;11.60;99.90
17571;DHT22;8903;52.220;20.978;2023-03-21T15:01:45;11.40;99.90
17571;DHT22;8903;52.220;20.978;2023-03-21T15:04:14;11.20;99.90
17571;DHT22;8903;52.220;20.978;2023-03-21T15:12:12;10.70;99.90
17571;DHT22;8903;52.220;20.978;2023-03-21T15:14:40;10.70;99.90
17571;DHT22;8903;52.220;20.978;2023-03-21T15:17:09;10.70;99.90
17571;DHT22;8903;52.220;20.978;2023-03-21T15:19:37;10.80;99.90
17571;DHT22;8903;52.220;20.978;2023-03-21T15:22:09;10.90;99.90
17571;DHT22;8903;52.220;20.978;2023-03-21T15:24:41;10.90;99.90
17571;DHT22;8903;52.220;20.978;2023-03-21T15:27:15;10.90;99.90
17571;DHT22;8903;52.220;20.978;2023-03-21T15:29:43;10.90;99.90
17571;DHT22;8903;52.220;20.978;2023-03-21T15:32:15;10.90;99.90
17571;DHT22;8903;52.220;20.978;2023-03-21T15:34:43;10.80;99.90
17571;DHT22;8903;52.220;20.978;2023-03-21T15:37:16;10.80;99.90
17571;DHT22;8903;52.220;20.978;2023-03-21T15:39:44;10.80;99.90
17571;DHT22;8903;52.220;20.978;2023-03-21T15:42:26;10.80;99.90
17571;DHT22;8903;52.220;20.978;2023-03-21T15:44:56;10.70;99.90
17571;DHT22;8903;52.220;20.978;2023-03-21T15:47:40;10.70;99.90
17571;DHT22;8903;52.220;20.978;2023-03-21T15:50:10;10.60;99.90
17571;DHT22;8903;52.220;20.978;2023-03-21T15:52:37;10.60;99.90
17571;DHT22;8903;52.220;20.978;2023-03-21T15:55:18;10.60;99.90
17571;DHT22;8903;52.220;20.978;2023-03-21T15:57:53;10.60;99.90
17571;DHT22;8903;52.220;20.978;2023-03-21T16:00:24;10.60;99.90
17571;DHT22;8903;52.220;20.978;2023-03-21T16:02:58;10.70;99.90
17571;DHT22;8903;52.220;20.978;2023-03-21T16:05:31;10.70;99.90
17571;DHT22;8903;52.220;20.978;2023-03-21T16:08:04;10.80;99.90
17571;DHT22;8903;52.220;20.978;2023-03-21T16:10:34;10.80;99.90
17571;DHT22;8903;52.220;20.978;2023-03-21T16:13:03;10.80;99.90
17571;DHT22;8903;52.220;20.978;2023-03-21T16:15:31;10.90;99.90
17571;DHT22;8903;52.220;20.978;2023-03-21T16:18:01;10.90;99.90
17571;DHT22;8903;52.220;20.978;2023-03-21T16:20:33;10.90;99.90
17571;DHT22;8903;52.220;20.978;2023-03-21T16:23:00;10.80;99.90